createdAt,value
2018-02-05T00:00:31.277Z,4.16
2018-02-05T00:01:31.231Z,3.59
2018-02-05T00:02:31.197Z,3.31
2018-02-05T00:03:31.152Z,2.84
2018-02-05T00:04:31.111Z,3.03
2018-02-05T00:05:31.058Z,3.59
2018-02-05T00:06:31.015Z,3.03
2018-02-05T00:07:30.974Z,3.03
2018-02-05T00:08:30.932Z,3.88
2018-02-05T00:09:30.892Z,3.78
2018-02-05T00:10:30.841Z,3.78
2018-02-05T00:11:30.804Z,3.69
2018-02-05T00:12:30.762Z,3.69
2018-02-05T00:13:30.708Z,4.73
2018-02-05T00:14:30.667Z,5.01
2018-02-05T00:15:30.621Z,5.11
2018-02-05T00:16:30.578Z,5.20
2018-02-05T00:17:30.535Z,5.68
2018-02-05T00:18:30.491Z,6.15
2018-02-05T00:19:30.449Z,5.58
2018-02-05T00:20:30.416Z,6.05
2018-02-05T00:21:30.361Z,5.87
2018-02-05T00:22:30.327Z,6.43
2018-02-05T00:23:30.279Z,6.34
2018-02-05T00:24:30.239Z,7.00
2018-02-05T00:25:30.195Z,6.81
2018-02-05T00:26:30.150Z,6.81
2018-02-05T00:27:30.104Z,7.38
2018-02-05T00:28:30.068Z,7.38
2018-02-05T00:29:30.012Z,6.90
2018-02-05T00:30:29.973Z,7.38
2018-02-05T00:31:29.926Z,7.19
2018-02-05T00:32:29.884Z,6.71
2018-02-05T00:33:29.859Z,6.52
2018-02-05T00:34:29.803Z,6.52
2018-02-05T00:35:29.757Z,6.43
2018-02-05T00:36:29.715Z,6.62
2018-02-05T00:37:29.668Z,6.24
2018-02-05T00:38:29.629Z,6.90
2018-02-05T00:39:29.580Z,7.19
2018-02-05T00:40:29.540Z,6.81
2018-02-05T00:41:29.557Z,6.90
2018-02-05T00:42:29.448Z,7.28
2018-02-05T00:43:29.409Z,7.85
2018-02-05T00:44:29.396Z,8.80
2018-02-05T00:45:29.319Z,8.70
2018-02-05T00:46:29.282Z,8.61
2018-02-05T00:47:29.233Z,8.42
2018-02-05T00:48:29.194Z,8.70
2018-02-05T00:49:29.146Z,8.70
2018-02-05T00:50:29.105Z,8.51
2018-02-05T00:51:29.063Z,11.07
2018-02-05T00:52:29.020Z,12.58
2018-02-05T00:53:28.973Z,12.77
2018-02-05T00:54:28.933Z,13.15
2018-02-05T00:55:28.886Z,12.39
2018-02-05T00:56:28.853Z,12.39
2018-02-05T00:57:28.813Z,11.63
2018-02-05T00:58:28.755Z,12.68
2018-02-05T00:59:28.719Z,12.87
2018-02-05T01:00:28.670Z,12.30
2018-02-05T01:01:28.635Z,12.58
2018-02-05T01:02:28.585Z,12.68
2018-02-05T01:03:28.541Z,12.30
2018-02-05T01:04:28.498Z,12.20
2018-02-05T01:05:28.453Z,11.92
2018-02-05T01:06:28.409Z,11.73
2018-02-05T01:07:28.367Z,11.82
2018-02-05T01:08:28.345Z,11.73
2018-02-05T01:09:28.364Z,11.63
2018-02-05T01:10:28.261Z,11.92
2018-02-05T01:11:28.197Z,11.82
2018-02-05T01:12:28.149Z,13.15
2018-02-05T01:13:28.103Z,13.81
2018-02-05T01:14:28.062Z,13.34
2018-02-05T01:15:28.022Z,14.19
2018-02-05T01:16:27.975Z,14.38
2018-02-05T01:17:27.949Z,14.28
2018-02-05T01:18:27.903Z,14.47
2018-02-05T01:19:27.858Z,15.04
2018-02-05T01:20:27.807Z,15.14
2018-02-05T01:21:27.776Z,15.04
2018-02-05T01:22:27.719Z,16.17
2018-02-05T01:23:27.680Z,15.23
2018-02-05T01:24:27.646Z,15.70
2018-02-05T01:25:27.587Z,15.80
2018-02-05T01:26:27.549Z,14.76
2018-02-05T01:27:27.499Z,14.09
2018-02-05T01:28:27.458Z,14.19
2018-02-05T01:29:27.425Z,15.23
2018-02-05T01:30:27.376Z,16.08
2018-02-05T01:31:27.325Z,16.08
2018-02-05T01:32:27.281Z,16.84
2018-02-05T01:33:27.237Z,16.84
2018-02-05T01:34:27.195Z,16.93
2018-02-05T01:35:27.152Z,19.01
2018-02-05T01:36:27.110Z,18.16
2018-02-05T01:37:27.070Z,17.88
2018-02-05T01:38:27.024Z,17.60
2018-02-05T01:39:26.978Z,16.74
2018-02-05T01:40:26.936Z,16.55
2018-02-05T01:41:26.889Z,15.42
2018-02-05T01:42:26.847Z,15.33
2018-02-05T01:43:26.804Z,14.38
2018-02-05T01:44:26.770Z,14.19
2018-02-05T01:45:26.719Z,13.24
2018-02-05T01:46:26.674Z,13.06
2018-02-05T01:47:26.646Z,12.11
2018-02-05T01:48:26.585Z,12.11
2018-02-05T01:49:26.546Z,11.73
2018-02-05T01:50:26.499Z,11.73
2018-02-05T01:51:26.457Z,11.35
2018-02-05T01:52:26.414Z,10.88
2018-02-05T01:53:26.367Z,11.16
2018-02-05T01:54:26.326Z,12.39
2018-02-05T01:55:26.282Z,13.15
2018-02-05T01:56:26.240Z,13.34
2018-02-05T01:57:26.198Z,14.66
2018-02-05T01:58:26.151Z,14.47
2018-02-05T01:59:26.112Z,15.42
2018-02-05T02:00:26.080Z,14.09
2018-02-05T02:01:26.022Z,14.28
2018-02-05T02:02:25.989Z,13.62
2018-02-05T02:03:25.939Z,13.81
2018-02-05T02:04:25.898Z,14.00
2018-02-05T02:05:25.851Z,12.96
2018-02-05T02:06:25.808Z,12.77
2018-02-05T02:07:25.771Z,13.24
2018-02-05T02:08:25.726Z,12.30
2018-02-05T02:09:25.675Z,13.15
2018-02-05T02:10:25.633Z,13.34
2018-02-05T02:11:25.588Z,14.09
2018-02-05T02:12:25.544Z,13.90
2018-02-05T02:13:25.508Z,13.24
2018-02-05T02:14:25.456Z,13.43
2018-02-05T02:15:25.414Z,12.77
2018-02-05T02:16:25.371Z,13.06
2018-02-05T02:17:25.326Z,12.30
2018-02-05T02:18:25.286Z,12.58
2018-02-05T02:19:25.242Z,13.06
2018-02-05T02:20:25.198Z,13.43
2018-02-05T02:21:25.157Z,13.43
2018-02-05T02:22:25.108Z,13.43
2018-02-05T02:23:25.075Z,14.19
2018-02-05T02:24:25.038Z,14.57
2018-02-05T02:25:24.984Z,14.76
2018-02-05T02:26:24.934Z,15.42
2018-02-05T02:27:24.890Z,16.08
2018-02-05T02:28:24.848Z,15.61
2018-02-05T02:29:24.807Z,15.52
2018-02-05T02:30:24.763Z,15.52
2018-02-05T02:31:24.723Z,16.74
2018-02-05T02:32:24.675Z,18.07
2018-02-05T02:33:24.635Z,17.12
2018-02-05T02:34:24.592Z,16.93
2018-02-05T02:35:24.544Z,16.93
2018-02-05T02:36:24.496Z,17.03
2018-02-05T02:37:24.458Z,17.79
2018-02-05T02:38:24.419Z,17.88
2018-02-05T02:39:24.375Z,17.22
2018-02-05T02:40:24.333Z,17.88
2018-02-05T02:41:24.292Z,16.65
2018-02-05T02:42:24.241Z,18.73
2018-02-05T02:43:24.203Z,21.38
2018-02-05T02:44:24.155Z,20.81
2018-02-05T02:45:24.110Z,21.00
2018-02-05T02:46:24.060Z,21.00
2018-02-05T02:47:24.020Z,20.53
2018-02-05T02:48:23.979Z,21.00
2018-02-05T02:49:23.935Z,20.72
2018-02-05T02:50:23.895Z,19.68
2018-02-05T02:51:23.846Z,20.62
2018-02-05T02:52:23.810Z,21.76
2018-02-05T02:53:23.765Z,19.87
2018-02-05T02:54:23.720Z,19.68
2018-02-05T02:55:23.676Z,20.53
2018-02-05T02:56:23.630Z,20.43
2018-02-05T02:57:23.600Z,20.25
2018-02-05T02:58:23.547Z,21.09
2018-02-05T02:59:23.504Z,21.57
2018-02-05T03:00:23.456Z,24.22
2018-02-05T03:01:23.441Z,24.03
2018-02-05T03:02:23.370Z,24.31
2018-02-05T03:03:23.326Z,25.45
2018-02-05T03:04:23.283Z,24.31
2018-02-05T03:05:23.240Z,24.22
2018-02-05T03:06:23.195Z,23.65
2018-02-05T03:07:23.151Z,23.84
2018-02-05T03:08:23.109Z,24.98
2018-02-05T03:09:23.070Z,24.22
2018-02-05T03:10:23.040Z,25.54
2018-02-05T03:11:22.978Z,25.07
2018-02-05T03:12:22.937Z,24.60
2018-02-05T03:13:22.892Z,24.98
2018-02-05T03:14:22.850Z,25.82
2018-02-05T03:15:22.804Z,25.07
2018-02-05T03:16:22.762Z,24.41
2018-02-05T03:17:22.732Z,25.35
2018-02-05T03:18:22.671Z,25.35
2018-02-05T03:19:22.632Z,24.12
2018-02-05T03:20:22.593Z,26.39
2018-02-05T03:21:22.544Z,26.11
2018-02-05T03:22:22.502Z,25.92
2018-02-05T03:23:22.454Z,25.35
2018-02-05T03:24:22.411Z,25.16
2018-02-05T03:25:22.367Z,25.63
2018-02-05T03:26:22.326Z,26.20
2018-02-05T03:27:22.279Z,26.77
2018-02-05T03:28:22.238Z,26.49
2018-02-05T03:29:22.196Z,26.01
2018-02-05T03:30:22.149Z,26.20
2018-02-05T03:31:22.104Z,28.66
2018-02-05T03:32:22.106Z,29.80
2018-02-05T03:33:22.019Z,28.38
2018-02-05T03:34:21.975Z,28.28
2018-02-05T03:35:21.931Z,27.44
2018-02-05T03:36:21.889Z,26.39
2018-02-05T03:37:21.856Z,26.77
2018-02-05T03:38:21.802Z,26.58
2018-02-05T03:39:21.778Z,26.96
2018-02-05T03:40:21.749Z,27.62
2018-02-05T03:41:21.682Z,25.35
2018-02-05T03:42:21.628Z,26.28
2018-02-05T03:43:21.596Z,25.35
2018-02-05T03:44:21.538Z,24.21
2018-02-05T03:45:21.503Z,24.58
2018-02-05T03:46:21.462Z,23.45
2018-02-05T03:47:21.416Z,24.03
2018-02-05T03:48:21.368Z,25.24
2018-02-05T03:49:21.324Z,25.24
2018-02-05T03:50:21.284Z,25.07
2018-02-05T03:51:21.233Z,25.71
2018-02-05T03:52:21.204Z,26.95
2018-02-05T03:53:21.143Z,27.98
2018-02-05T03:54:21.117Z,27.23
2018-02-05T03:55:21.054Z,27.61
2018-02-05T03:56:21.015Z,26.76
2018-02-05T03:57:20.965Z,28.09
2018-02-05T03:58:20.926Z,29.03
2018-02-05T03:59:20.888Z,28.55
2018-02-05T04:00:20.836Z,27.70
2018-02-05T04:01:20.791Z,27.14
2018-02-05T04:02:20.748Z,26.76
2018-02-05T04:03:20.704Z,27.14
2018-02-05T04:04:20.659Z,27.98
2018-02-05T04:05:20.616Z,27.70
2018-02-05T04:06:20.570Z,26.85
2018-02-05T04:07:20.532Z,27.80
2018-02-05T04:08:20.483Z,28.08
2018-02-05T04:09:20.440Z,28.08
2018-02-05T04:10:20.395Z,28.93
2018-02-05T04:11:20.356Z,28.46
2018-02-05T04:12:20.313Z,27.91
2018-02-05T04:13:20.263Z,29.03
2018-02-05T04:14:20.219Z,30.07
2018-02-05T04:15:20.189Z,30.18
2018-02-05T04:16:20.135Z,31.20
2018-02-05T04:17:20.100Z,32.54
2018-02-05T04:18:20.051Z,34.61
2018-02-05T04:19:20.005Z,37.37
2018-02-05T04:20:19.955Z,38.03
2018-02-05T04:21:19.916Z,40.01
2018-02-05T04:22:19.869Z,38.88
2018-02-05T04:23:19.827Z,35.00
2018-02-05T04:24:19.781Z,34.80
2018-02-05T04:25:19.737Z,33.56
2018-02-05T04:26:19.692Z,31.86
2018-02-05T04:27:19.650Z,31.58
2018-02-05T04:28:19.606Z,31.39
2018-02-05T04:29:19.560Z,30.63
2018-02-05T04:30:19.517Z,30.44
2018-02-05T04:31:19.472Z,29.31
2018-02-05T04:32:19.435Z,28.27
2018-02-05T04:33:19.384Z,27.70
2018-02-05T04:34:19.341Z,26.76
2018-02-05T04:35:19.297Z,26.57
2018-02-05T04:36:19.252Z,28.93
2018-02-05T04:37:19.213Z,31.86
2018-02-05T04:38:19.179Z,31.29
2018-02-05T04:39:19.130Z,30.63
2018-02-05T04:40:19.089Z,31.77
2018-02-05T04:41:19.035Z,33.28
2018-02-05T04:42:19.001Z,33.09
2018-02-05T04:43:18.949Z,33.28
2018-02-05T04:44:18.914Z,31.10
2018-02-05T04:45:18.861Z,30.73
2018-02-05T04:46:18.818Z,30.82
2018-02-05T04:47:18.770Z,30.91
2018-02-05T04:48:18.735Z,30.73
2018-02-05T04:49:18.684Z,30.54
2018-02-05T04:50:18.637Z,29.79
2018-02-05T04:51:18.597Z,29.88
2018-02-05T04:52:18.557Z,28.93
2018-02-05T04:53:18.506Z,30.44
2018-02-05T04:54:18.468Z,30.07
2018-02-05T04:55:18.418Z,30.16
2018-02-05T04:56:18.373Z,30.54
2018-02-05T04:57:18.334Z,29.97
2018-02-05T04:58:18.299Z,29.31
2018-02-05T04:59:18.241Z,28.65
2018-02-05T05:00:18.200Z,28.36
2018-02-05T05:01:18.162Z,28.55
2018-02-05T05:02:18.113Z,28.08
2018-02-05T05:03:18.082Z,28.08
2018-02-05T05:04:18.024Z,28.55
2018-02-05T05:05:17.981Z,27.51
2018-02-05T05:06:17.942Z,27.42
2018-02-05T05:07:17.895Z,28.36
2018-02-05T05:08:17.853Z,28.74
2018-02-05T05:09:17.805Z,28.55
2018-02-05T05:10:17.758Z,28.84
2018-02-05T05:11:17.715Z,28.93
2018-02-05T05:12:17.679Z,29.31
2018-02-05T05:13:17.633Z,29.60
2018-02-05T05:14:17.587Z,29.03
2018-02-05T05:15:17.539Z,28.74
2018-02-05T05:16:17.507Z,28.55
2018-02-05T05:17:17.458Z,27.70
2018-02-05T05:18:17.417Z,27.98
2018-02-05T05:19:17.370Z,26.76
2018-02-05T05:20:17.324Z,27.33
2018-02-05T05:21:17.280Z,26.85
2018-02-05T05:22:17.231Z,25.15
2018-02-05T05:23:17.192Z,25.62
2018-02-05T05:24:17.147Z,25.90
2018-02-05T05:25:17.112Z,26.47
2018-02-05T05:26:17.058Z,27.23
2018-02-05T05:27:17.016Z,27.51
2018-02-05T05:28:16.969Z,27.70
2018-02-05T05:29:16.926Z,27.80
2018-02-05T05:30:16.889Z,27.61
2018-02-05T05:31:16.843Z,27.14
2018-02-05T05:32:16.792Z,26.66
2018-02-05T05:33:16.748Z,25.52
2018-02-05T05:34:16.704Z,26.76
2018-02-05T05:35:16.659Z,27.61
2018-02-05T05:36:16.617Z,28.46
2018-02-05T05:37:16.571Z,29.60
2018-02-05T05:38:16.532Z,29.22
2018-02-05T05:39:16.485Z,28.84
2018-02-05T05:40:16.440Z,30.63
2018-02-05T05:41:16.412Z,30.82
2018-02-05T05:42:16.351Z,29.31
2018-02-05T05:43:16.318Z,29.79
2018-02-05T05:44:16.267Z,29.50
2018-02-05T05:45:16.229Z,29.69
2018-02-05T05:46:16.179Z,29.97
2018-02-05T05:47:16.139Z,28.55
2018-02-05T05:48:16.094Z,28.93
2018-02-05T05:49:16.046Z,28.93
2018-02-05T05:50:16.003Z,27.98
2018-02-05T05:51:15.958Z,28.27
2018-02-05T05:52:15.917Z,27.61
2018-02-05T05:53:15.877Z,29.22
2018-02-05T05:54:15.827Z,31.20
2018-02-05T05:55:15.782Z,30.07
2018-02-05T05:56:15.740Z,29.50
2018-02-05T05:57:15.694Z,29.31
2018-02-05T05:58:15.651Z,30.73
2018-02-05T05:59:15.609Z,30.73
2018-02-05T06:00:15.574Z,31.39
2018-02-05T06:01:15.535Z,30.73
2018-02-05T06:02:15.491Z,30.26
2018-02-05T06:03:15.457Z,31.10
2018-02-05T06:04:15.403Z,32.81
2018-02-05T06:05:15.369Z,32.43
2018-02-05T06:06:15.301Z,33.66
2018-02-05T06:07:15.261Z,32.81
2018-02-05T06:08:15.256Z,32.90
2018-02-05T06:09:15.192Z,33.56
2018-02-05T06:10:15.125Z,33.85
2018-02-05T06:11:15.125Z,33.37
2018-02-05T06:12:15.038Z,33.28
2018-02-05T06:13:14.994Z,32.71
2018-02-05T06:14:14.967Z,32.62
2018-02-05T06:15:14.922Z,33.47
2018-02-05T06:16:14.874Z,33.66
2018-02-05T06:17:14.837Z,33.00
2018-02-05T06:18:14.793Z,32.71
2018-02-05T06:19:14.747Z,31.67
2018-02-05T06:20:14.697Z,31.39
2018-02-05T06:21:14.654Z,32.05
2018-02-05T06:22:14.604Z,31.67
2018-02-05T06:23:14.545Z,32.71
2018-02-05T06:24:14.511Z,33.00
2018-02-05T06:25:14.467Z,33.85
2018-02-05T06:26:14.424Z,34.04
2018-02-05T06:27:14.384Z,34.99
2018-02-05T06:28:14.352Z,35.08
2018-02-05T06:29:14.287Z,33.75
2018-02-05T06:30:14.243Z,33.47
2018-02-05T06:31:14.205Z,34.23
2018-02-05T06:32:14.166Z,35.36
2018-02-05T06:33:14.111Z,34.61
2018-02-05T06:34:14.067Z,36.31
2018-02-05T06:35:14.025Z,36.97
2018-02-05T06:36:13.980Z,36.78
2018-02-05T06:37:13.941Z,36.78
2018-02-05T06:38:13.893Z,35.93
2018-02-05T06:39:13.852Z,36.78
2018-02-05T06:40:13.815Z,37.44
2018-02-05T06:41:13.762Z,38.20
2018-02-05T06:42:13.711Z,37.73
2018-02-05T06:43:13.675Z,36.78
2018-02-05T06:44:13.625Z,38.29
2018-02-05T06:45:13.584Z,38.39
2018-02-05T06:46:13.534Z,37.73
2018-02-05T06:47:13.495Z,37.92
2018-02-05T06:48:13.463Z,38.39
2018-02-05T06:49:13.414Z,38.57
2018-02-05T06:50:13.359Z,38.20
2018-02-05T06:51:13.317Z,39.14
2018-02-05T06:52:13.277Z,39.05
2018-02-05T06:53:13.227Z,39.24
2018-02-05T06:54:13.197Z,38.86
2018-02-05T06:55:13.140Z,39.24
2018-02-05T06:56:13.107Z,39.14
2018-02-05T06:57:13.051Z,39.24
2018-02-05T06:58:13.009Z,39.43
2018-02-05T06:59:12.959Z,39.05
2018-02-05T07:00:12.924Z,38.10
2018-02-05T07:01:12.871Z,39.14
2018-02-05T07:02:12.835Z,38.67
2018-02-05T07:03:12.786Z,39.24
2018-02-05T07:04:12.746Z,40.75
2018-02-05T07:05:12.697Z,41.03
2018-02-05T07:06:12.655Z,41.70
2018-02-05T07:07:12.610Z,41.70
2018-02-05T07:08:12.566Z,41.70
2018-02-05T07:09:12.519Z,42.45
2018-02-05T07:10:12.481Z,43.12
2018-02-05T07:11:12.433Z,44.15
2018-02-05T07:12:12.388Z,46.71
2018-02-05T07:13:12.343Z,47.18
2018-02-05T07:14:12.312Z,46.33
2018-02-05T07:15:12.282Z,47.66
2018-02-05T07:16:12.214Z,48.03
2018-02-05T07:17:12.170Z,48.13
2018-02-05T07:18:12.126Z,48.32
2018-02-05T07:19:12.091Z,49.35
2018-02-05T07:20:12.038Z,50.68
2018-02-05T07:21:12.003Z,50.99
2018-02-05T07:22:11.948Z,53.64
2018-02-05T07:23:11.904Z,53.52
2018-02-05T07:24:11.862Z,52.69
2018-02-05T07:25:11.819Z,53.26
2018-02-05T07:26:11.773Z,53.74
2018-02-05T07:27:11.732Z,53.83
2018-02-05T07:28:11.687Z,53.92
2018-02-05T07:29:11.647Z,54.49
2018-02-05T07:30:11.608Z,53.26
2018-02-05T07:31:11.563Z,55.25
2018-02-05T07:32:11.524Z,52.41
2018-02-05T07:33:11.473Z,52.76
2018-02-05T07:34:11.429Z,49.35
2018-02-05T07:35:11.383Z,49.26
2018-02-05T07:36:11.335Z,51.53
2018-02-05T07:37:11.293Z,52.00
2018-02-05T07:38:11.267Z,51.15
2018-02-05T07:39:11.215Z,49.73
2018-02-05T07:40:11.159Z,51.06
2018-02-05T07:41:11.121Z,54.65
2018-02-05T07:42:11.079Z,58.65
2018-02-05T07:43:11.040Z,60.45
2018-02-05T07:44:10.994Z,60.23
2018-02-05T07:45:10.942Z,58.62
2018-02-05T07:46:10.902Z,58.44
2018-02-05T07:47:10.857Z,60.70
2018-02-05T07:48:10.822Z,59.38
2018-02-05T07:49:10.776Z,59.19
2018-02-05T07:50:10.725Z,60.14
2018-02-05T07:51:10.682Z,58.81
2018-02-05T07:52:10.637Z,59.00
2018-02-05T07:53:10.623Z,59.47
2018-02-05T07:54:10.553Z,60.04
2018-02-05T07:55:10.506Z,60.42
2018-02-05T07:56:10.472Z,60.33
2018-02-05T07:57:10.420Z,59.66
2018-02-05T07:58:10.375Z,60.14
2018-02-05T07:59:10.372Z,58.75
2018-02-05T08:00:10.296Z,60.55
2018-02-05T08:01:10.245Z,62.25
2018-02-05T08:02:10.251Z,62.25
2018-02-05T08:03:10.158Z,63.67
2018-02-05T08:04:10.145Z,64.42
2018-02-05T08:05:10.074Z,65.94
2018-02-05T08:06:10.026Z,65.28
2018-02-05T08:07:09.984Z,65.28
2018-02-05T08:08:09.940Z,67.64
2018-02-05T08:09:09.898Z,66.13
2018-02-05T08:10:09.850Z,68.30
2018-02-05T08:11:09.815Z,67.93
2018-02-05T08:12:09.763Z,68.30
2018-02-05T08:13:09.719Z,69.25
2018-02-05T08:14:09.676Z,69.25
2018-02-05T08:15:09.634Z,67.26
2018-02-05T08:16:09.602Z,67.93
2018-02-05T08:17:09.563Z,68.77
2018-02-05T08:18:09.501Z,70.95
2018-02-05T08:19:09.468Z,71.14
2018-02-05T08:20:09.423Z,71.61
2018-02-05T08:21:09.392Z,74.74
2018-02-05T08:22:09.330Z,73.98
2018-02-05T08:23:09.295Z,77.67
2018-02-05T08:24:09.256Z,74.93
2018-02-05T08:25:09.202Z,73.50
2018-02-05T08:26:09.160Z,72.37
2018-02-05T08:27:09.122Z,72.09
2018-02-05T08:28:09.076Z,71.52
2018-02-05T08:29:09.032Z,73.60
2018-02-05T08:30:08.989Z,72.56
2018-02-05T08:31:08.944Z,74.64
2018-02-05T08:32:08.935Z,72.47
2018-02-05T08:33:08.857Z,76.82
2018-02-05T08:34:08.818Z,73.98
2018-02-05T08:35:08.768Z,74.07
2018-02-05T08:36:08.720Z,76.53
2018-02-05T08:37:08.677Z,78.52
2018-02-05T08:38:08.637Z,76.15
2018-02-05T08:39:08.588Z,78.42
2018-02-05T08:40:08.569Z,80.22
2018-02-05T08:41:08.519Z,79.09
2018-02-05T08:42:08.515Z,80.98
2018-02-05T08:43:08.415Z,79.75
2018-02-05T08:44:08.383Z,78.42
2018-02-05T08:45:08.342Z,79.28
2018-02-05T08:46:08.303Z,79.37
2018-02-05T08:47:08.245Z,79.47
2018-02-05T08:48:08.210Z,77.67
2018-02-05T08:49:08.159Z,82.12
2018-02-05T08:50:08.121Z,80.88
2018-02-05T08:51:08.080Z,81.93
2018-02-05T08:52:08.035Z,82.92
2018-02-05T08:53:08.005Z,80.41
2018-02-05T08:54:07.973Z,80.88
2018-02-05T08:55:07.910Z,82.31
2018-02-05T08:56:07.861Z,83.82
2018-02-05T08:57:07.833Z,82.02
2018-02-05T08:58:07.791Z,83.63
2018-02-05T08:59:07.725Z,82.40
2018-02-05T09:00:07.679Z,82.21
2018-02-05T09:01:07.637Z,83.06
2018-02-05T09:02:07.600Z,83.25
2018-02-05T09:03:07.546Z,82.31
2018-02-05T09:04:07.511Z,84.39
2018-02-05T09:05:07.461Z,84.10
2018-02-05T09:06:07.448Z,83.53
2018-02-05T09:07:07.374Z,83.25
2018-02-05T09:08:07.348Z,83.06
2018-02-05T09:09:07.295Z,83.34
2018-02-05T09:10:07.254Z,86.37
2018-02-05T09:11:07.210Z,85.42
2018-02-05T09:12:07.160Z,87.23
2018-02-05T09:13:07.178Z,88.17
2018-02-05T09:14:07.069Z,87.79
2018-02-05T09:15:07.030Z,87.88
2018-02-05T09:16:06.982Z,87.79
2018-02-05T09:17:06.945Z,87.46
2018-02-05T09:18:06.894Z,86.14
2018-02-05T09:19:06.852Z,84.91
2018-02-05T09:20:06.808Z,84.81
2018-02-05T09:21:06.765Z,85.00
2018-02-05T09:22:06.720Z,88.26
2018-02-05T09:23:06.679Z,90.16
2018-02-05T09:24:06.633Z,86.99
2018-02-05T09:25:06.590Z,91.43
2018-02-05T09:26:06.555Z,91.05
2018-02-05T09:27:06.502Z,90.25
2018-02-05T09:28:06.459Z,90.82
2018-02-05T09:29:06.415Z,89.31
2018-02-05T09:30:06.373Z,88.83
2018-02-05T09:31:06.327Z,89.69
2018-02-05T09:32:06.286Z,89.59
2018-02-05T09:33:06.241Z,93.75
2018-02-05T09:34:06.196Z,91.86
2018-02-05T09:35:06.157Z,92.90
2018-02-05T09:36:06.111Z,96.59
2018-02-05T09:37:06.085Z,96.97
2018-02-05T09:38:06.026Z,99.99
2018-02-05T09:39:05.990Z,99.99
2018-02-05T09:40:05.943Z,99.99
2018-02-05T09:41:05.896Z,99.99
2018-02-05T09:42:05.854Z,99.99
2018-02-05T09:43:05.805Z,99.99
2018-02-05T09:44:05.766Z,99.99
2018-02-05T09:45:05.733Z,99.99
2018-02-05T09:46:05.833Z,99.99
2018-02-05T09:47:05.638Z,99.99
2018-02-05T09:48:05.593Z,99.99
2018-02-05T09:49:05.564Z,99.99
2018-02-05T09:50:05.504Z,99.99
2018-02-05T09:51:05.486Z,99.99
2018-02-05T09:52:05.435Z,99.99
2018-02-05T09:53:05.382Z,99.99
2018-02-05T09:54:05.332Z,99.99
2018-02-05T09:55:05.286Z,99.99
2018-02-05T09:56:05.255Z,99.99
2018-02-05T09:57:05.202Z,99.99
2018-02-05T09:58:05.209Z,99.99
2018-02-05T09:59:05.119Z,99.99
2018-02-05T10:00:05.073Z,99.99
2018-02-05T10:01:05.088Z,99.99
2018-02-05T10:02:04.985Z,99.99
2018-02-05T10:03:04.944Z,99.99
2018-02-05T10:04:04.917Z,99.99
2018-02-05T10:05:04.858Z,99.99
2018-02-05T10:06:04.812Z,99.99
2018-02-05T10:07:04.768Z,99.99
2018-02-05T10:08:04.735Z,99.99
2018-02-05T10:09:04.707Z,99.99
2018-02-05T10:10:04.637Z,99.99
2018-02-05T10:11:04.596Z,99.99
2018-02-05T10:12:04.552Z,99.99
2018-02-05T10:13:04.510Z,99.99
2018-02-05T10:14:04.468Z,99.99
2018-02-05T10:15:04.432Z,99.99
2018-02-05T10:16:04.406Z,99.99
2018-02-05T10:17:04.338Z,99.99
2018-02-05T10:18:04.305Z,99.99
2018-02-05T10:19:04.257Z,99.99
2018-02-05T10:20:04.214Z,99.99
2018-02-05T10:21:04.168Z,99.99
2018-02-05T10:22:04.124Z,99.99
2018-02-05T10:23:04.091Z,99.99
2018-02-05T10:24:04.038Z,99.99
2018-02-05T10:25:03.993Z,99.99
2018-02-05T10:26:03.961Z,99.99
2018-02-05T10:27:03.930Z,99.99
2018-02-05T10:28:03.887Z,99.99
2018-02-05T10:29:03.822Z,99.99
2018-02-05T10:30:03.778Z,99.99
2018-02-05T10:31:03.734Z,99.99
2018-02-05T10:32:03.704Z,99.99
2018-02-05T10:33:03.653Z,99.99
2018-02-05T10:34:03.607Z,99.99
2018-02-05T10:35:03.605Z,99.99
2018-02-05T10:36:03.525Z,99.99
2018-02-05T10:37:03.479Z,99.99
2018-02-05T10:38:03.435Z,99.99
2018-02-05T10:39:03.405Z,99.99
2018-02-05T10:40:03.350Z,99.99
2018-02-05T10:41:03.306Z,99.99
2018-02-05T10:42:03.272Z,99.99
2018-02-05T10:43:03.228Z,99.99
2018-02-05T10:44:03.182Z,99.99
2018-02-05T10:45:03.160Z,99.99
2018-02-05T10:46:03.094Z,99.99
2018-02-05T10:47:03.064Z,99.99
2018-02-05T10:48:03.006Z,99.99
2018-02-05T10:49:02.967Z,99.99
2018-02-05T10:50:02.918Z,99.99
2018-02-05T10:51:02.887Z,99.99
2018-02-05T10:52:02.849Z,99.99
2018-02-05T10:53:02.803Z,99.99
2018-02-05T10:54:02.809Z,99.99
2018-02-05T10:55:02.719Z,99.99
2018-02-05T10:56:02.682Z,99.99
2018-02-05T10:57:02.635Z,99.99
2018-02-05T10:58:02.589Z,99.99
2018-02-05T10:59:02.543Z,99.99
2018-02-05T11:00:02.496Z,99.99
2018-02-05T11:01:02.447Z,99.99
2018-02-05T11:02:02.413Z,99.99
2018-02-05T11:03:02.370Z,99.99
2018-02-05T11:04:02.331Z,99.99
2018-02-05T11:05:02.274Z,99.99
2018-02-05T11:06:02.249Z,99.99
2018-02-05T11:07:02.193Z,99.99
2018-02-05T11:08:02.164Z,99.99
2018-02-05T11:09:02.104Z,99.99
2018-02-05T11:10:02.087Z,99.99
2018-02-05T11:11:02.015Z,99.99
2018-02-05T11:12:01.968Z,99.99
2018-02-05T11:13:01.941Z,99.99
2018-02-05T11:14:01.897Z,99.95
2018-02-05T11:15:01.858Z,99.76
2018-02-05T11:16:01.826Z,99.29
2018-02-05T11:17:01.762Z,98.82
2018-02-05T11:18:01.717Z,99.29
2018-02-05T11:19:01.672Z,99.10
2018-02-05T11:20:03.406Z,99.29
2018-02-05T11:21:01.591Z,99.38
2018-02-05T11:22:01.543Z,99.29
2018-02-05T11:23:01.502Z,98.63
2018-02-05T11:24:01.456Z,98.72
2018-02-05T11:25:01.420Z,99.10
2018-02-05T11:26:01.367Z,99.95
2018-02-05T11:27:01.336Z,99.99
2018-02-05T11:28:01.288Z,99.66
2018-02-05T11:29:01.243Z,99.99
2018-02-05T11:30:01.202Z,98.91
2018-02-05T11:31:01.156Z,97.96
2018-02-05T11:32:01.111Z,97.68
2018-02-05T11:33:01.070Z,96.92
2018-02-05T11:34:01.043Z,96.16
2018-02-05T11:35:00.985Z,96.92
2018-02-05T11:36:00.946Z,97.96
2018-02-05T11:37:00.898Z,97.96
2018-02-05T11:38:00.858Z,97.20
2018-02-05T11:39:00.814Z,96.26
2018-02-05T11:40:00.774Z,97.20
2018-02-05T11:41:00.729Z,97.77
2018-02-05T11:42:00.693Z,97.96
2018-02-05T11:43:00.639Z,98.15
2018-02-05T11:44:00.604Z,98.34
2018-02-05T11:45:00.562Z,97.96
2018-02-05T11:46:00.511Z,95.21
2018-02-05T11:47:00.472Z,93.80
2018-02-05T11:48:00.426Z,93.42
2018-02-05T11:49:00.386Z,94.56
2018-02-05T11:50:00.340Z,95.31
2018-02-05T11:51:00.312Z,96.16
2018-02-05T11:52:00.275Z,95.12
2018-02-05T11:53:00.213Z,93.70
2018-02-05T11:54:00.174Z,94.46
2018-02-05T11:55:00.133Z,95.12
2018-02-05T11:56:00.095Z,96.16
2018-02-05T11:57:00.044Z,96.16
2018-02-05T11:58:00.010Z,95.88
2018-02-05T11:58:59.957Z,95.21
2018-02-05T11:59:59.912Z,96.45
2018-02-05T12:00:59.871Z,94.65
2018-02-05T12:01:59.829Z,93.99
2018-02-05T12:02:59.786Z,94.27
2018-02-05T12:03:59.742Z,93.51
2018-02-05T12:04:59.701Z,93.80
2018-02-05T12:05:59.673Z,93.04
2018-02-05T12:06:59.626Z,91.05
2018-02-05T12:07:59.583Z,89.35
2018-02-05T12:08:59.533Z,89.82
2018-02-05T12:09:59.512Z,89.92
2018-02-05T12:10:59.444Z,88.59
2018-02-05T12:11:59.402Z,88.12
2018-02-05T12:12:59.357Z,87.36
2018-02-05T12:13:59.319Z,88.12
2018-02-05T12:14:59.282Z,89.25
2018-02-05T12:15:59.230Z,89.82
2018-02-05T12:16:59.187Z,90.30
2018-02-05T12:17:59.163Z,90.11
2018-02-05T12:18:59.134Z,88.97
2018-02-05T12:19:59.060Z,87.93
2018-02-05T12:20:59.029Z,87.46
2018-02-05T12:21:58.990Z,86.51
2018-02-05T12:22:58.942Z,85.47
2018-02-05T12:23:58.894Z,84.61
2018-02-05T12:24:58.854Z,84.05
2018-02-05T12:25:58.811Z,82.72
2018-02-05T12:26:58.760Z,80.93
2018-02-05T12:27:58.718Z,81.12
2018-02-05T12:28:58.675Z,80.36
2018-02-05T12:29:58.641Z,81.12
2018-02-05T12:30:58.587Z,81.77
2018-02-05T12:31:58.557Z,81.77
2018-02-05T12:32:58.502Z,82.44
2018-02-05T12:33:58.459Z,82.06
2018-02-05T12:34:58.438Z,82.44
2018-02-05T12:35:58.387Z,83.67
2018-02-05T12:36:58.340Z,83.86
2018-02-05T12:37:58.292Z,80.64
2018-02-05T12:38:58.247Z,78.08
2018-02-05T12:39:58.205Z,78.08
2018-02-05T12:40:58.167Z,77.42
2018-02-05T12:41:58.117Z,75.34
2018-02-05T12:42:58.074Z,74.02
2018-02-05T12:43:58.040Z,71.55
2018-02-05T12:44:57.987Z,71.84
2018-02-05T12:45:57.947Z,71.55
2018-02-05T12:46:57.901Z,71.61
2018-02-05T12:47:57.861Z,72.75
2018-02-05T12:48:57.817Z,73.98
2018-02-05T12:49:57.774Z,73.98
2018-02-05T12:50:57.732Z,74.30
2018-02-05T12:51:57.689Z,74.77
2018-02-05T12:52:57.646Z,73.07
2018-02-05T12:53:57.608Z,72.22